Weather at Mayville Municipal Airport

Public forecast

Using degrees Fahrenheit for public forecast. Weather courtesy of forecast.io.

Closest aviation weather report (METAR) to Mayville Municipal Airport

Closest report is Grand Forks International Airport, 29.2 nm (54.0 km) NNE. Retrieved 2021/01/27 23:53 UTC (23 minutes ago):

KGFK 272353Z 07005KT 10SM -SN OVC080 M17/M22 A3053 RMK AO2 SNE27B51 SLP370 4/002 P0000 60000 T11671217 11167 21217 55001

Closest aviation forecast (TAF) to Mayville Municipal Airport

Closest forecast is Grand Forks International Airport, 29.2 nm (54.0 km) NNE. Retrieved 2021-01-28 00:39 UTC (0 seconds ago):

TAF KGFK 272335Z 2800/2824 04005KT P6SM OVC080 FM281600 13010G19KT P6SM BKN050